createdAt,value
2023-03-28T00:01:25.765Z,0.50
2023-03-28T00:03:57.125Z,0.47
2023-03-28T00:06:26.669Z,0.67
2023-03-28T00:08:56.127Z,0.30
2023-03-28T00:11:26.044Z,0.13
2023-03-28T00:14:01.553Z,0.20
2023-03-28T00:16:35.404Z,0.60
2023-03-28T00:19:12.208Z,0.50
2023-03-28T00:21:46.827Z,0.20
2023-03-28T00:24:21.636Z,0.40
2023-03-28T00:26:52.756Z,0.47
2023-03-28T00:29:25.598Z,0.43
2023-03-28T00:31:55.161Z,0.27
2023-03-28T00:34:24.888Z,0.20
2023-03-28T00:37:15.346Z,0.83
2023-03-28T00:39:47.553Z,1.23
2023-03-28T00:42:23.402Z,1.23
2023-03-28T00:44:58.445Z,0.23
2023-03-28T00:48:02.176Z,0.20
2023-03-28T00:50:42.304Z,0.87
2023-03-28T00:53:19.258Z,0.20
2023-03-28T00:56:05.168Z,0.30
2023-03-28T00:58:39.371Z,0.20
2023-03-28T01:01:11.102Z,0.30
2023-03-28T01:03:44.772Z,0.33
2023-03-28T01:06:17.190Z,0.17
2023-03-28T01:08:49.075Z,0.30
2023-03-28T01:11:19.560Z,0.97
2023-03-28T01:13:54.192Z,1.37
2023-03-28T01:16:24.600Z,0.40
2023-03-28T01:18:54.312Z,0.47
2023-03-28T01:22:09.501Z,0.20
2023-03-28T01:25:01.233Z,0.40
2023-03-28T01:28:08.447Z,1.13
2023-03-28T01:31:03.314Z,0.20
2023-03-28T01:33:43.041Z,0.40
2023-03-28T01:36:51.522Z,0.57
2023-03-28T01:39:43.616Z,0.13
2023-03-28T01:42:26.389Z,0.30
2023-03-28T01:45:19.234Z,0.30
2023-03-28T01:48:08.055Z,0.40
2023-03-28T01:50:44.955Z,0.17
2023-03-28T01:53:46.476Z,0.30
2023-03-28T01:56:32.653Z,0.10
2023-03-28T01:59:15.691Z,0.33
2023-03-28T02:02:13.009Z,0.63
2023-03-28T02:04:46.008Z,0.50
2023-03-28T02:07:17.508Z,0.80
2023-03-28T02:09:49.372Z,0.33
2023-03-28T02:12:25.225Z,0.60
2023-03-28T02:14:57.598Z,0.47
2023-03-28T02:17:29.974Z,0.77
2023-03-28T02:20:05.470Z,0.57
2023-03-28T02:22:51.284Z,0.40
2023-03-28T02:25:21.170Z,0.50
2023-03-28T02:27:55.314Z,1.47
2023-03-28T02:30:25.146Z,0.30
2023-03-28T02:33:00.437Z,0.50
2023-03-28T02:35:48.382Z,0.87
2023-03-28T02:38:31.214Z,0.50
2023-03-28T02:41:16.745Z,1.00
2023-03-28T02:43:53.278Z,1.13
2023-03-28T02:46:35.646Z,1.23
2023-03-28T02:49:35.101Z,1.07
2023-03-28T02:52:28.032Z,0.40
2023-03-28T02:55:11.931Z,1.33
2023-03-28T02:57:49.040Z,0.40
2023-03-28T03:00:21.242Z,0.57
2023-03-28T03:02:52.927Z,0.40
2023-03-28T03:05:23.419Z,0.40
2023-03-28T03:07:53.187Z,0.30
2023-03-28T03:10:22.910Z,0.63
2023-03-28T03:12:52.387Z,0.30
2023-03-28T03:15:22.027Z,0.57
2023-03-28T03:17:51.546Z,1.30
2023-03-28T03:20:22.806Z,0.77
2023-03-28T03:22:52.306Z,1.20
2023-03-28T03:25:21.778Z,0.30
2023-03-28T03:27:51.309Z,0.40
2023-03-28T03:30:20.905Z,0.33
2023-03-28T03:32:50.494Z,0.80
2023-03-28T03:35:22.376Z,0.77
2023-03-28T03:37:52.603Z,0.30
2023-03-28T03:40:22.074Z,2.00
2023-03-28T03:42:51.830Z,0.27
2023-03-28T03:45:22.077Z,0.57
2023-03-28T03:47:51.572Z,0.40
2023-03-28T03:50:21.019Z,0.30
2023-03-28T03:52:51.036Z,0.10
2023-03-28T03:55:20.947Z,0.63
2023-03-28T03:57:50.584Z,0.10
2023-03-28T04:00:20.253Z,0.20
2023-03-28T04:02:50.586Z,0.43
2023-03-28T04:05:20.141Z,0.20
2023-03-28T04:07:49.961Z,1.13
2023-03-28T04:10:19.452Z,0.50
2023-03-28T04:12:48.897Z,1.33
2023-03-28T04:15:18.368Z,0.30
2023-03-28T04:17:49.562Z,0.10
2023-03-28T04:20:19.554Z,0.57
2023-03-28T04:22:49.094Z,0.10
2023-03-28T04:25:18.667Z,0.10
2023-03-28T04:27:48.225Z,0.20
2023-03-28T04:30:18.218Z,0.20
2023-03-28T04:32:49.857Z,0.40
2023-03-28T04:35:19.417Z,2.00
2023-03-28T04:37:50.299Z,0.97
2023-03-28T04:40:21.768Z,0.23
2023-03-28T04:42:51.264Z,0.57
2023-03-28T04:45:20.793Z,0.20
2023-03-28T04:47:50.672Z,0.10
2023-03-28T04:50:20.370Z,0.20
2023-03-28T04:52:49.834Z,0.73
2023-03-28T04:55:19.935Z,0.90
2023-03-28T04:57:49.401Z,0.20
2023-03-28T05:00:19.169Z,0.73
2023-03-28T05:02:48.853Z,0.23
2023-03-28T05:05:18.450Z,0.57
2023-03-28T05:07:47.926Z,0.20
2023-03-28T05:10:17.450Z,0.70
2023-03-28T05:12:46.949Z,1.37
2023-03-28T05:15:21.245Z,0.80
2023-03-28T05:17:47.565Z,0.37
2023-03-28T05:20:18.688Z,0.30
2023-03-28T05:22:48.233Z,0.30
2023-03-28T05:25:17.932Z,0.37
2023-03-28T05:27:48.259Z,0.37
2023-03-28T05:30:18.166Z,0.20
2023-03-28T05:32:48.247Z,0.20
2023-03-28T05:35:18.290Z,0.77
2023-03-28T05:37:47.840Z,0.77
2023-03-28T05:40:17.346Z,0.60
2023-03-28T05:42:46.937Z,1.27
2023-03-28T05:45:17.246Z,0.70
2023-03-28T05:47:46.763Z,1.23
2023-03-28T05:50:16.268Z,0.67
2023-03-28T05:52:45.808Z,0.80
2023-03-28T05:55:15.539Z,0.40
2023-03-28T05:57:45.071Z,0.27
2023-03-28T06:00:15.457Z,0.57
2023-03-28T06:02:44.976Z,0.43
2023-03-28T06:05:14.881Z,1.10
2023-03-28T06:07:45.251Z,0.30
2023-03-28T06:10:16.612Z,0.60
2023-03-28T06:12:46.267Z,1.00
2023-03-28T06:15:16.629Z,0.60
2023-03-28T06:17:46.499Z,0.57
2023-03-28T06:20:16.470Z,0.40
2023-03-28T06:22:46.194Z,1.67
2023-03-28T06:25:16.005Z,0.60
2023-03-28T06:27:45.813Z,0.80
2023-03-28T06:30:16.059Z,0.57
2023-03-28T06:32:45.575Z,0.60
2023-03-28T06:35:15.354Z,0.97
2023-03-28T06:37:44.825Z,0.33
2023-03-28T06:40:14.305Z,0.97
2023-03-28T06:42:43.781Z,0.53
2023-03-28T06:45:13.348Z,0.50
2023-03-28T06:47:42.830Z,0.40
2023-03-28T06:50:13.090Z,0.70
2023-03-28T06:52:42.659Z,1.30
2023-03-28T06:55:12.297Z,1.60
2023-03-28T06:57:41.856Z,1.33
2023-03-28T07:00:12.116Z,0.83
2023-03-28T07:02:41.748Z,1.13
2023-03-28T07:05:11.445Z,1.80
2023-03-28T07:07:41.296Z,1.63
2023-03-28T07:10:12.009Z,1.60
2023-03-28T07:12:41.513Z,1.47
2023-03-28T07:15:11.527Z,0.80
2023-03-28T07:17:41.003Z,0.70
2023-03-28T07:20:10.897Z,1.47
2023-03-28T07:22:40.360Z,1.60
2023-03-28T07:25:10.183Z,1.07
2023-03-28T07:27:39.800Z,1.33
2023-03-28T07:30:10.497Z,0.63
2023-03-28T07:32:51.228Z,0.97
2023-03-28T07:35:11.938Z,0.83
2023-03-28T07:37:41.413Z,0.80
2023-03-28T07:40:12.618Z,0.60
2023-03-28T07:42:42.082Z,0.50
2023-03-28T07:45:12.450Z,1.33
2023-03-28T07:47:42.600Z,0.60
2023-03-28T07:50:12.819Z,0.87
2023-03-28T07:52:43.944Z,0.80
2023-03-28T07:55:15.612Z,1.10
2023-03-28T07:57:46.982Z,0.87
2023-03-28T08:00:17.564Z,0.40
2023-03-28T08:02:47.194Z,1.00
2023-03-28T08:05:17.407Z,0.93
2023-03-28T08:07:47.687Z,1.20
2023-03-28T08:10:17.305Z,0.83
2023-03-28T08:12:46.760Z,0.67
2023-03-28T08:15:16.242Z,1.33
2023-03-28T08:17:45.758Z,1.37
2023-03-28T08:20:15.256Z,1.20
2023-03-28T08:22:44.785Z,0.87
2023-03-28T08:25:14.385Z,0.53
2023-03-28T08:27:43.833Z,1.07
2023-03-28T08:30:13.644Z,0.40
2023-03-28T08:32:43.139Z,0.30
2023-03-28T08:35:13.511Z,0.30
2023-03-28T08:37:43.138Z,0.30
2023-03-28T08:40:20.427Z,0.63
2023-03-28T08:42:59.975Z,0.50
2023-03-28T08:45:39.851Z,0.40
2023-03-28T08:48:37.028Z,0.37
2023-03-28T08:51:26.076Z,0.50
2023-03-28T08:54:18.242Z,0.40
2023-03-28T08:56:57.726Z,0.50
2023-03-28T09:00:13.885Z,0.57
2023-03-28T09:02:44.804Z,0.30
2023-03-28T09:05:44.465Z,0.40
2023-03-28T09:08:26.786Z,0.80
2023-03-28T09:11:06.935Z,0.10
2023-03-28T09:13:41.019Z,0.53
2023-03-28T09:16:42.181Z,0.87
2023-03-28T09:19:48.389Z,0.50
2023-03-28T09:22:44.151Z,0.40
2023-03-28T09:25:51.718Z,0.50
2023-03-28T09:28:46.736Z,0.33
2023-03-28T09:31:21.268Z,0.30
2023-03-28T09:33:53.470Z,0.37
2023-03-28T09:36:34.325Z,0.30
2023-03-28T09:39:09.170Z,0.70
2023-03-28T09:41:54.770Z,0.40
2023-03-28T09:44:28.964Z,0.60
2023-03-28T09:47:00.638Z,0.57
2023-03-28T09:49:30.189Z,0.33
2023-03-28T09:51:59.728Z,0.77
2023-03-28T09:54:36.583Z,1.17
2023-03-28T09:57:07.076Z,1.40
2023-03-28T09:59:37.744Z,0.83
2023-03-28T10:02:08.890Z,0.37
2023-03-28T10:04:40.711Z,0.30
2023-03-28T10:07:17.598Z,0.33
2023-03-28T10:09:57.266Z,0.40
2023-03-28T10:12:33.914Z,0.30
2023-03-28T10:15:04.238Z,0.30
2023-03-28T10:17:37.953Z,0.23
2023-03-28T10:20:22.307Z,0.30
2023-03-28T10:22:56.946Z,0.43
2023-03-28T10:25:39.850Z,0.83
2023-03-28T10:28:16.324Z,0.27
2023-03-28T10:30:49.514Z,0.47
2023-03-28T10:33:35.490Z,0.20
2023-03-28T10:36:09.940Z,0.20
2023-03-28T10:38:50.995Z,0.20
2023-03-28T10:41:26.788Z,0.30
2023-03-28T10:43:58.186Z,1.27
2023-03-28T10:46:39.820Z,0.50
2023-03-28T10:49:20.009Z,0.20
2023-03-28T10:51:49.610Z,0.17
2023-03-28T10:54:34.844Z,0.20
2023-03-28T10:57:34.321Z,0.30
2023-03-28T11:00:33.864Z,0.60
2023-03-28T11:03:25.956Z,0.33
2023-03-28T11:06:09.882Z,0.30
2023-03-28T11:09:01.815Z,0.20
2023-03-28T11:11:57.995Z,0.20
2023-03-28T11:14:43.874Z,0.30
2023-03-28T11:17:44.459Z,0.20
2023-03-28T11:20:18.592Z,0.10
2023-03-28T11:23:06.593Z,0.20
2023-03-28T11:25:42.397Z,0.30
2023-03-28T11:28:19.090Z,0.30
2023-03-28T11:30:52.922Z,0.33
2023-03-28T11:33:49.413Z,0.30
2023-03-28T11:36:29.402Z,0.30
2023-03-28T11:39:27.536Z,0.70
2023-03-28T11:42:01.845Z,0.10
2023-03-28T11:44:36.007Z,0.27
2023-03-28T11:47:16.096Z,0.10
2023-03-28T11:49:59.205Z,0.37
2023-03-28T11:52:36.895Z,0.63
2023-03-28T11:55:20.597Z,0.30
2023-03-28T11:58:04.006Z,0.30
2023-03-28T12:00:44.109Z,0.87
2023-03-28T12:03:24.140Z,0.47
2023-03-28T12:06:13.410Z,0.20
2023-03-28T12:09:22.511Z,0.30
2023-03-28T12:12:29.552Z,0.20
2023-03-28T12:15:06.316Z,0.73
2023-03-28T12:17:43.301Z,0.20
2023-03-28T12:20:22.619Z,0.40
2023-03-28T12:23:00.114Z,0.30
2023-03-28T12:25:40.763Z,0.10
2023-03-28T12:28:29.477Z,0.20
2023-03-28T12:31:12.078Z,0.20
2023-03-28T12:33:48.904Z,0.20
2023-03-28T12:36:37.402Z,0.20
2023-03-28T12:39:36.875Z,0.27
2023-03-28T12:42:13.768Z,0.20
2023-03-28T12:44:53.862Z,0.20
2023-03-28T12:47:27.982Z,0.60
2023-03-28T12:50:07.827Z,0.20
2023-03-28T12:52:41.905Z,0.50
2023-03-28T12:55:28.137Z,0.97
2023-03-28T12:58:26.738Z,0.40
2023-03-28T13:01:36.703Z,0.43
2023-03-28T13:04:24.861Z,0.53
2023-03-28T13:07:07.538Z,0.37
2023-03-28T13:10:02.135Z,0.30
2023-03-28T13:12:48.106Z,0.57
2023-03-28T13:15:27.645Z,0.40
2023-03-28T13:18:24.250Z,0.30
2023-03-28T13:20:55.114Z,0.27
2023-03-28T13:23:31.713Z,0.30
2023-03-28T13:26:05.933Z,0.30
2023-03-28T13:28:53.388Z,0.30
2023-03-28T13:31:26.598Z,0.53
2023-03-28T13:34:03.358Z,0.10
2023-03-28T13:36:36.480Z,0.27
2023-03-28T13:39:13.197Z,0.30
2023-03-28T13:41:55.035Z,0.20
2023-03-28T13:44:43.501Z,0.20
2023-03-28T13:47:23.454Z,0.20
2023-03-28T13:50:06.639Z,0.30
2023-03-28T13:52:36.629Z,0.37
2023-03-28T13:55:25.314Z,0.37
2023-03-28T13:57:55.463Z,0.57
2023-03-28T14:00:28.210Z,0.37
2023-03-28T14:03:05.462Z,0.40
2023-03-28T14:05:35.891Z,0.37
2023-03-28T14:08:22.032Z,0.30
2023-03-28T14:10:52.341Z,0.40
2023-03-28T14:13:26.756Z,0.40
2023-03-28T14:15:57.515Z,0.57
2023-03-28T14:18:46.698Z,0.30
2023-03-28T14:21:16.998Z,0.10
2023-03-28T14:24:07.544Z,0.37
2023-03-28T14:26:38.374Z,0.27
2023-03-28T14:29:20.481Z,0.47
2023-03-28T14:31:52.185Z,0.43
2023-03-28T14:34:30.827Z,0.30
2023-03-28T14:37:06.297Z,0.53
2023-03-28T14:39:39.074Z,0.30
2023-03-28T14:42:16.052Z,0.40
2023-03-28T14:44:53.649Z,0.30
2023-03-28T14:47:30.278Z,0.20
2023-03-28T14:50:01.349Z,0.30
2023-03-28T14:52:36.630Z,0.40
2023-03-28T14:55:09.178Z,0.23
2023-03-28T14:57:39.006Z,0.30
2023-03-28T15:00:12.914Z,0.57
2023-03-28T15:02:45.496Z,0.43
2023-03-28T15:05:19.215Z,0.40
2023-03-28T15:07:58.627Z,0.53
2023-03-28T15:10:29.128Z,0.33
2023-03-28T15:13:24.033Z,0.80
2023-03-28T15:15:56.768Z,0.50
2023-03-28T15:18:33.926Z,0.40
2023-03-28T15:21:07.096Z,0.20
2023-03-28T15:24:11.360Z,0.30
2023-03-28T15:26:45.203Z,0.70
2023-03-28T15:29:21.861Z,0.30
2023-03-28T15:31:52.939Z,0.20
2023-03-28T15:34:27.917Z,0.57
2023-03-28T15:37:06.873Z,0.47
2023-03-28T15:39:37.497Z,0.40
2023-03-28T15:42:23.337Z,0.57
2023-03-28T15:45:03.649Z,0.20
2023-03-28T15:47:36.325Z,1.03
2023-03-28T15:50:15.636Z,0.37
2023-03-28T15:52:46.453Z,0.53
2023-03-28T15:55:20.629Z,0.20
2023-03-28T15:57:50.518Z,0.10
2023-03-28T16:00:45.620Z,0.47
2023-03-28T16:03:29.773Z,0.30
2023-03-28T16:06:30.926Z,0.30
2023-03-28T16:09:00.342Z,0.40
2023-03-28T16:11:29.820Z,0.40
2023-03-28T16:14:00.813Z,1.17
2023-03-28T16:16:31.429Z,0.20
2023-03-28T16:19:02.898Z,0.73
2023-03-28T16:21:32.384Z,0.37
2023-03-28T16:24:01.852Z,0.20
2023-03-28T16:26:31.411Z,0.10
2023-03-28T16:29:01.133Z,0.40
2023-03-28T16:31:30.814Z,0.57
2023-03-28T16:34:00.329Z,0.77
2023-03-28T16:36:29.907Z,0.43
2023-03-28T16:38:59.362Z,0.97
2023-03-28T16:41:28.865Z,0.47
2023-03-28T16:43:58.324Z,0.50
2023-03-28T16:46:27.907Z,0.10
2023-03-28T16:48:57.367Z,0.30
2023-03-28T16:51:26.863Z,0.30
2023-03-28T16:53:56.887Z,0.50
2023-03-28T16:56:27.563Z,1.27
2023-03-28T16:58:57.390Z,0.70
2023-03-28T17:01:27.552Z,0.30
2023-03-28T17:03:57.091Z,0.23
2023-03-28T17:06:27.420Z,0.87
2023-03-28T17:08:58.733Z,0.20
2023-03-28T17:11:28.208Z,0.10
2023-03-28T17:13:59.069Z,0.30
2023-03-28T17:16:28.722Z,0.30
2023-03-28T17:18:58.218Z,0.60
2023-03-28T17:21:27.722Z,1.20
2023-03-28T17:23:57.194Z,0.27
2023-03-28T17:26:27.158Z,0.20
2023-03-28T17:28:58.809Z,0.40
2023-03-28T17:31:28.912Z,0.57
2023-03-28T17:33:58.483Z,0.30
2023-03-28T17:36:30.131Z,0.20
2023-03-28T17:39:00.336Z,0.40
2023-03-28T17:41:30.824Z,0.42
2023-03-28T17:44:00.285Z,0.30
2023-03-28T17:46:30.590Z,1.20
2023-03-28T17:49:00.387Z,0.40
2023-03-28T17:51:29.881Z,0.20
2023-03-28T17:54:00.837Z,0.70
2023-03-28T17:56:30.393Z,0.87
2023-03-28T17:58:59.865Z,0.27
2023-03-28T18:01:29.383Z,0.47
2023-03-28T18:03:58.900Z,0.33
2023-03-28T18:06:28.505Z,0.43
2023-03-28T18:08:57.983Z,0.30
2023-03-28T18:11:28.389Z,0.37
2023-03-28T18:13:58.967Z,0.37
2023-03-28T18:16:28.747Z,0.30
2023-03-28T18:18:58.229Z,0.40
2023-03-28T18:21:27.959Z,0.70
2023-03-28T18:23:57.444Z,0.80
2023-03-28T18:26:28.861Z,1.67
2023-03-28T18:28:58.390Z,0.90
2023-03-28T18:31:28.781Z,0.60
2023-03-28T18:33:58.534Z,0.73
2023-03-28T18:36:28.153Z,0.63
2023-03-28T18:38:57.631Z,0.67
2023-03-28T18:41:27.486Z,1.67
2023-03-28T18:43:57.373Z,1.53
2023-03-28T18:46:28.561Z,1.30
2023-03-28T18:49:00.759Z,0.53
2023-03-28T18:51:30.210Z,1.40
2023-03-28T18:54:00.749Z,0.70
2023-03-28T18:56:30.374Z,1.07
2023-03-28T18:58:59.905Z,0.90
2023-03-28T19:01:29.949Z,1.00
2023-03-28T19:03:59.593Z,0.80
2023-03-28T19:06:29.204Z,0.77
2023-03-28T19:08:58.744Z,0.67
2023-03-28T19:11:28.226Z,0.87
2023-03-28T19:13:57.693Z,0.60
2023-03-28T19:16:27.603Z,1.87
2023-03-28T19:18:57.128Z,1.40
2023-03-28T19:21:26.605Z,2.20
2023-03-28T19:23:56.211Z,1.63
2023-03-28T19:26:26.450Z,1.93
2023-03-28T19:28:55.914Z,2.40
2023-03-28T19:31:26.011Z,2.00
2023-03-28T19:33:55.485Z,2.00
2023-03-28T19:36:25.307Z,1.40
2023-03-28T19:38:54.778Z,1.10
2023-03-28T19:41:26.500Z,1.13
2023-03-28T19:43:56.014Z,1.03
2023-03-28T19:46:33.152Z,0.87
2023-03-28T19:49:05.835Z,1.10
2023-03-28T19:51:35.957Z,1.63
2023-03-28T19:54:05.846Z,1.33
2023-03-28T19:56:35.595Z,2.20
2023-03-28T19:59:05.069Z,2.03
2023-03-28T20:01:34.596Z,3.37
2023-03-28T20:04:04.476Z,3.13
2023-03-28T20:06:34.043Z,2.80
2023-03-28T20:09:03.541Z,2.17
2023-03-28T20:11:33.609Z,2.10
2023-03-28T20:14:03.087Z,1.67
2023-03-28T20:16:32.629Z,1.93
2023-03-28T20:19:02.198Z,1.33
2023-03-28T20:21:31.670Z,1.50
2023-03-28T20:24:01.211Z,1.20
2023-03-28T20:26:31.660Z,1.70
2023-03-28T20:29:01.494Z,1.77
2023-03-28T20:31:31.099Z,1.20
2023-03-28T20:34:00.605Z,1.30
2023-03-28T20:36:31.734Z,1.60
2023-03-28T20:39:02.406Z,1.40
2023-03-28T20:41:32.011Z,1.70
2023-03-28T20:44:03.218Z,1.80
2023-03-28T20:46:37.435Z,1.67
2023-03-28T20:49:07.910Z,1.10
2023-03-28T20:51:39.283Z,1.03
2023-03-28T20:54:08.568Z,0.77
2023-03-28T20:56:38.161Z,2.03
2023-03-28T20:59:07.758Z,1.43
2023-03-28T21:01:38.902Z,1.30
2023-03-28T21:04:08.526Z,1.07
2023-03-28T21:06:39.555Z,1.57
2023-03-28T21:09:16.043Z,1.30
2023-03-28T21:11:46.358Z,1.23
2023-03-28T21:14:16.293Z,0.77
2023-03-28T21:16:47.503Z,0.90
2023-03-28T21:19:17.078Z,1.13
2023-03-28T21:21:47.321Z,1.03
2023-03-28T21:24:17.856Z,1.67
2023-03-28T21:26:48.210Z,0.80
2023-03-28T21:29:17.705Z,1.83
2023-03-28T21:31:47.384Z,0.90
2023-03-28T21:34:17.045Z,1.10
2023-03-28T21:36:46.864Z,0.60
2023-03-28T21:39:16.410Z,0.70
2023-03-28T21:41:45.976Z,0.83
2023-03-28T21:44:15.573Z,1.20
2023-03-28T21:46:45.223Z,1.20
2023-03-28T21:49:14.691Z,2.10
2023-03-28T21:51:44.167Z,0.77
2023-03-28T21:54:13.644Z,0.90
2023-03-28T21:56:43.148Z,0.90
2023-03-28T21:59:12.583Z,0.97
2023-03-28T22:01:42.154Z,1.60
2023-03-28T22:04:11.644Z,1.23
2023-03-28T22:06:41.172Z,1.37
2023-03-28T22:09:10.718Z,1.00
2023-03-28T22:11:40.174Z,1.30
2023-03-28T22:14:09.725Z,0.77
2023-03-28T22:16:40.941Z,0.83
2023-03-28T22:19:11.222Z,0.83
2023-03-28T22:21:40.766Z,0.60
2023-03-28T22:24:12.157Z,1.17
2023-03-28T22:26:44.838Z,1.23
2023-03-28T22:29:14.313Z,1.77
2023-03-28T22:31:44.029Z,0.83
2023-03-28T22:34:15.271Z,1.27
2023-03-28T22:36:44.769Z,0.83
2023-03-28T22:39:16.493Z,1.33
2023-03-28T22:41:47.215Z,0.50
2023-03-28T22:44:19.205Z,0.97
2023-03-28T22:46:49.369Z,1.00
2023-03-28T22:49:20.589Z,0.93
2023-03-28T22:51:50.706Z,0.50
2023-03-28T22:54:21.878Z,0.73
2023-03-28T22:56:51.790Z,0.73
2023-03-28T22:59:21.251Z,0.70
2023-03-28T23:01:51.139Z,0.80
2023-03-28T23:04:20.710Z,0.77
2023-03-28T23:06:50.368Z,0.73
2023-03-28T23:09:20.368Z,1.03
2023-03-28T23:11:49.995Z,0.50
2023-03-28T23:14:19.479Z,0.77
2023-03-28T23:16:50.092Z,0.60
2023-03-28T23:19:19.646Z,1.00
2023-03-28T23:21:50.186Z,1.33
2023-03-28T23:24:19.678Z,0.50
2023-03-28T23:26:49.125Z,0.57
2023-03-28T23:29:18.679Z,0.93
2023-03-28T23:31:48.201Z,0.73
2023-03-28T23:34:17.768Z,0.53
2023-03-28T23:36:47.272Z,0.37
2023-03-28T23:39:17.546Z,0.80
2023-03-28T23:41:47.011Z,0.80
2023-03-28T23:44:16.480Z,0.73
2023-03-28T23:46:45.943Z,0.53
2023-03-28T23:49:15.790Z,1.63
2023-03-28T23:51:46.061Z,0.83
2023-03-28T23:54:15.607Z,0.57
2023-03-28T23:56:45.725Z,0.63
2023-03-28T23:59:15.923Z,1.07
